sensor_id;sensor_type;location;lat;lon;timestamp;P1;durP1;ratioP1;P2;durP2;ratioP2
38226;SDS011;24026;49.446;8.576;2024-03-22T00:00:41;148.40;;;133.73;;
38226;SDS011;24026;49.446;8.576;2024-03-22T00:03:02;148.63;;;133.93;;
38226;SDS011;24026;49.446;8.576;2024-03-22T00:05:22;147.00;;;132.55;;
38226;SDS011;24026;49.446;8.576;2024-03-22T00:07:43;146.85;;;132.52;;
38226;SDS011;24026;49.446;8.576;2024-03-22T00:10:04;146.93;;;132.50;;
38226;SDS011;24026;49.446;8.576;2024-03-22T00:12:25;146.82;;;132.25;;
38226;SDS011;24026;49.446;8.576;2024-03-22T00:14:46;144.52;;;130.35;;
38226;SDS011;24026;49.446;8.576;2024-03-22T00:17:06;145.98;;;131.48;;
38226;SDS011;24026;49.446;8.576;2024-03-22T00:19:27;146.50;;;132.00;;
38226;SDS011;24026;49.446;8.576;2024-03-22T00:21:47;145.18;;;130.90;;
38226;SDS011;24026;49.446;8.576;2024-03-22T00:24:07;145.88;;;131.52;;
38226;SDS011;24026;49.446;8.576;2024-03-22T00:26:28;146.30;;;131.50;;
38226;SDS011;24026;49.446;8.576;2024-03-22T00:28:48;144.43;;;130.05;;
38226;SDS011;24026;49.446;8.576;2024-03-22T00:31:09;145.00;;;130.60;;
38226;SDS011;24026;49.446;8.576;2024-03-22T00:33:30;144.45;;;129.93;;
38226;SDS011;24026;49.446;8.576;2024-03-22T00:35:50;144.68;;;130.38;;
38226;SDS011;24026;49.446;8.576;2024-03-22T00:38:10;145.35;;;130.95;;
38226;SDS011;24026;49.446;8.576;2024-03-22T00:40:31;144.23;;;130.00;;
38226;SDS011;24026;49.446;8.576;2024-03-22T00:42:51;143.27;;;129.07;;
38226;SDS011;24026;49.446;8.576;2024-03-22T00:45:12;145.23;;;130.77;;
38226;SDS011;24026;49.446;8.576;2024-03-22T00:47:32;145.85;;;131.27;;
38226;SDS011;24026;49.446;8.576;2024-03-22T00:49:52;145.60;;;131.20;;
38226;SDS011;24026;49.446;8.576;2024-03-22T00:52:13;144.77;;;130.40;;
38226;SDS011;24026;49.446;8.576;2024-03-22T00:54:33;144.10;;;129.95;;
38226;SDS011;24026;49.446;8.576;2024-03-22T00:56:53;145.85;;;131.43;;
38226;SDS011;24026;49.446;8.576;2024-03-22T00:59:14;146.00;;;131.60;;
38226;SDS011;24026;49.446;8.576;2024-03-22T01:01:34;145.38;;;130.77;;
38226;SDS011;24026;49.446;8.576;2024-03-22T01:03:55;143.43;;;129.20;;
38226;SDS011;24026;49.446;8.576;2024-03-22T01:06:15;144.73;;;130.45;;
38226;SDS011;24026;49.446;8.576;2024-03-22T01:08:35;145.07;;;130.80;;
38226;SDS011;24026;49.446;8.576;2024-03-22T01:10:56;143.88;;;129.65;;
38226;SDS011;24026;49.446;8.576;2024-03-22T01:13:16;144.95;;;130.73;;
38226;SDS011;24026;49.446;8.576;2024-03-22T01:15:37;146.85;;;132.25;;
38226;SDS011;24026;49.446;8.576;2024-03-22T01:17:57;145.10;;;130.52;;
38226;SDS011;24026;49.446;8.576;2024-03-22T01:20:18;143.55;;;129.27;;
38226;SDS011;24026;49.446;8.576;2024-03-22T01:22:38;143.85;;;129.68;;
38226;SDS011;24026;49.446;8.576;2024-03-22T01:25:00;142.80;;;128.60;;
38226;SDS011;24026;49.446;8.576;2024-03-22T01:27:20;141.88;;;127.85;;
38226;SDS011;24026;49.446;8.576;2024-03-22T01:29:40;144.80;;;130.55;;
38226;SDS011;24026;49.446;8.576;2024-03-22T01:32:01;143.40;;;129.20;;
38226;SDS011;24026;49.446;8.576;2024-03-22T01:34:21;142.90;;;128.68;;
38226;SDS011;24026;49.446;8.576;2024-03-22T01:36:42;142.18;;;127.95;;
38226;SDS011;24026;49.446;8.576;2024-03-22T01:39:02;141.50;;;127.43;;
38226;SDS011;24026;49.446;8.576;2024-03-22T01:41:22;142.73;;;128.65;;
38226;SDS011;24026;49.446;8.576;2024-03-22T01:43:43;142.52;;;128.40;;
38226;SDS011;24026;49.446;8.576;2024-03-22T01:46:04;143.07;;;128.75;;
38226;SDS011;24026;49.446;8.576;2024-03-22T01:48:24;141.73;;;127.43;;
38226;SDS011;24026;49.446;8.576;2024-03-22T01:50:44;142.15;;;128.05;;
38226;SDS011;24026;49.446;8.576;2024-03-22T01:53:05;141.80;;;127.65;;
38226;SDS011;24026;49.446;8.576;2024-03-22T01:55:25;141.00;;;126.93;;
38226;SDS011;24026;49.446;8.576;2024-03-22T01:57:47;144.13;;;129.77;;
38226;SDS011;24026;49.446;8.576;2024-03-22T02:00:11;142.07;;;128.05;;
38226;SDS011;24026;49.446;8.576;2024-03-22T02:02:32;143.00;;;128.75;;
38226;SDS011;24026;49.446;8.576;2024-03-22T02:04:52;141.00;;;127.03;;
38226;SDS011;24026;49.446;8.576;2024-03-22T02:07:13;143.25;;;128.95;;
38226;SDS011;24026;49.446;8.576;2024-03-22T02:09:33;142.98;;;128.75;;
38226;SDS011;24026;49.446;8.576;2024-03-22T02:11:54;141.93;;;127.88;;
38226;SDS011;24026;49.446;8.576;2024-03-22T02:14:14;142.57;;;128.48;;
38226;SDS011;24026;49.446;8.576;2024-03-22T02:16:34;142.60;;;128.43;;
38226;SDS011;24026;49.446;8.576;2024-03-22T02:18:55;142.30;;;128.00;;
38226;SDS011;24026;49.446;8.576;2024-03-22T02:21:15;140.80;;;126.97;;
38226;SDS011;24026;49.446;8.576;2024-03-22T02:23:36;141.90;;;127.75;;
38226;SDS011;24026;49.446;8.576;2024-03-22T02:25:58;141.13;;;127.25;;
38226;SDS011;24026;49.446;8.576;2024-03-22T02:28:18;141.50;;;127.43;;
38226;SDS011;24026;49.446;8.576;2024-03-22T02:30:38;142.73;;;128.52;;
38226;SDS011;24026;49.446;8.576;2024-03-22T02:32:59;142.65;;;128.38;;
38226;SDS011;24026;49.446;8.576;2024-03-22T02:35:19;140.95;;;127.15;;
38226;SDS011;24026;49.446;8.576;2024-03-22T02:37:39;142.30;;;128.30;;
38226;SDS011;24026;49.446;8.576;2024-03-22T02:40:00;142.50;;;128.30;;
38226;SDS011;24026;49.446;8.576;2024-03-22T02:42:20;142.73;;;128.63;;
38226;SDS011;24026;49.446;8.576;2024-03-22T02:44:41;142.23;;;128.20;;
38226;SDS011;24026;49.446;8.576;2024-03-22T02:47:02;140.82;;;126.93;;
38226;SDS011;24026;49.446;8.576;2024-03-22T02:49:24;142.48;;;128.38;;
38226;SDS011;24026;49.446;8.576;2024-03-22T02:51:45;141.93;;;127.95;;
38226;SDS011;24026;49.446;8.576;2024-03-22T02:54:05;141.20;;;126.93;;
38226;SDS011;24026;49.446;8.576;2024-03-22T02:56:26;141.20;;;127.10;;
38226;SDS011;24026;49.446;8.576;2024-03-22T02:58:48;139.75;;;125.80;;
38226;SDS011;24026;49.446;8.576;2024-03-22T03:01:09;140.80;;;126.88;;
38226;SDS011;24026;49.446;8.576;2024-03-22T03:03:30;140.77;;;126.60;;
38226;SDS011;24026;49.446;8.576;2024-03-22T03:05:50;140.02;;;126.10;;
38226;SDS011;24026;49.446;8.576;2024-03-22T03:08:12;137.82;;;124.15;;
38226;SDS011;24026;49.446;8.576;2024-03-22T03:10:32;139.65;;;125.75;;
38226;SDS011;24026;49.446;8.576;2024-03-22T03:12:54;139.52;;;125.50;;
38226;SDS011;24026;49.446;8.576;2024-03-22T03:15:15;141.07;;;126.97;;
38226;SDS011;24026;49.446;8.576;2024-03-22T03:17:36;140.63;;;126.78;;
38226;SDS011;24026;49.446;8.576;2024-03-22T03:19:56;140.90;;;126.70;;
38226;SDS011;24026;49.446;8.576;2024-03-22T03:22:17;139.88;;;125.95;;
38226;SDS011;24026;49.446;8.576;2024-03-22T03:24:37;140.05;;;126.13;;
38226;SDS011;24026;49.446;8.576;2024-03-22T03:26:57;139.57;;;125.63;;
38226;SDS011;24026;49.446;8.576;2024-03-22T03:29:18;139.73;;;125.72;;
38226;SDS011;24026;49.446;8.576;2024-03-22T03:31:38;138.73;;;125.00;;
38226;SDS011;24026;49.446;8.576;2024-03-22T03:33:59;140.93;;;126.88;;
38226;SDS011;24026;49.446;8.576;2024-03-22T03:36:19;138.18;;;124.38;;
38226;SDS011;24026;49.446;8.576;2024-03-22T03:38:39;139.10;;;125.13;;
38226;SDS011;24026;49.446;8.576;2024-03-22T03:41:01;138.68;;;124.82;;
38226;SDS011;24026;49.446;8.576;2024-03-22T03:43:21;138.38;;;124.68;;
38226;SDS011;24026;49.446;8.576;2024-03-22T03:45:42;138.80;;;125.00;;
38226;SDS011;24026;49.446;8.576;2024-03-22T03:48:02;139.27;;;125.43;;
38226;SDS011;24026;49.446;8.576;2024-03-22T03:50:23;138.15;;;124.40;;
38226;SDS011;24026;49.446;8.576;2024-03-22T03:52:43;139.13;;;125.38;;
38226;SDS011;24026;49.446;8.576;2024-03-22T03:55:04;138.30;;;124.55;;
38226;SDS011;24026;49.446;8.576;2024-03-22T03:57:24;140.02;;;126.15;;
38226;SDS011;24026;49.446;8.576;2024-03-22T03:59:45;139.73;;;125.75;;
38226;SDS011;24026;49.446;8.576;2024-03-22T04:02:05;138.73;;;124.82;;
38226;SDS011;24026;49.446;8.576;2024-03-22T04:04:25;138.88;;;125.00;;
38226;SDS011;24026;49.446;8.576;2024-03-22T04:06:46;138.65;;;124.78;;
38226;SDS011;24026;49.446;8.576;2024-03-22T04:09:06;139.45;;;125.55;;
38226;SDS011;24026;49.446;8.576;2024-03-22T04:11:27;139.52;;;125.72;;
38226;SDS011;24026;49.446;8.576;2024-03-22T04:13:47;139.10;;;125.10;;
38226;SDS011;24026;49.446;8.576;2024-03-22T04:16:07;138.55;;;124.80;;
38226;SDS011;24026;49.446;8.576;2024-03-22T04:18:28;138.95;;;125.15;;
38226;SDS011;24026;49.446;8.576;2024-03-22T04:20:55;140.70;;;126.78;;
38226;SDS011;24026;49.446;8.576;2024-03-22T04:23:16;141.15;;;127.10;;
38226;SDS011;24026;49.446;8.576;2024-03-22T04:25:37;140.45;;;126.60;;
38226;SDS011;24026;49.446;8.576;2024-03-22T04:27:57;138.90;;;125.10;;
38226;SDS011;24026;49.446;8.576;2024-03-22T04:30:17;140.70;;;126.78;;
38226;SDS011;24026;49.446;8.576;2024-03-22T04:32:38;139.07;;;125.18;;
38226;SDS011;24026;49.446;8.576;2024-03-22T04:34:58;139.75;;;125.88;;
38226;SDS011;24026;49.446;8.576;2024-03-22T04:37:19;137.60;;;123.85;;
38226;SDS011;24026;49.446;8.576;2024-03-22T04:39:40;139.00;;;125.18;;
38226;SDS011;24026;49.446;8.576;2024-03-22T04:42:00;139.10;;;125.30;;
38226;SDS011;24026;49.446;8.576;2024-03-22T04:44:21;138.93;;;124.90;;
38226;SDS011;24026;49.446;8.576;2024-03-22T04:46:41;139.15;;;125.20;;
38226;SDS011;24026;49.446;8.576;2024-03-22T04:49:02;139.80;;;125.70;;
38226;SDS011;24026;49.446;8.576;2024-03-22T04:51:22;139.52;;;125.65;;
38226;SDS011;24026;49.446;8.576;2024-03-22T04:53:42;137.30;;;123.47;;
38226;SDS011;24026;49.446;8.576;2024-03-22T04:56:04;138.95;;;124.97;;
38226;SDS011;24026;49.446;8.576;2024-03-22T04:58:24;137.50;;;123.72;;
38226;SDS011;24026;49.446;8.576;2024-03-22T05:00:45;138.55;;;124.75;;
38226;SDS011;24026;49.446;8.576;2024-03-22T05:03:06;138.48;;;124.57;;
38226;SDS011;24026;49.446;8.576;2024-03-22T05:05:27;136.90;;;123.20;;
38226;SDS011;24026;49.446;8.576;2024-03-22T05:07:47;138.25;;;124.40;;
38226;SDS011;24026;49.446;8.576;2024-03-22T05:10:08;137.77;;;124.07;;
38226;SDS011;24026;49.446;8.576;2024-03-22T05:12:29;138.55;;;124.88;;
38226;SDS011;24026;49.446;8.576;2024-03-22T05:14:49;138.30;;;124.55;;
38226;SDS011;24026;49.446;8.576;2024-03-22T05:17:10;137.60;;;123.90;;
38226;SDS011;24026;49.446;8.576;2024-03-22T05:19:30;138.05;;;124.25;;
38226;SDS011;24026;49.446;8.576;2024-03-22T05:21:51;138.90;;;125.20;;
38226;SDS011;24026;49.446;8.576;2024-03-22T05:24:11;137.55;;;123.70;;
38226;SDS011;24026;49.446;8.576;2024-03-22T05:26:32;138.93;;;125.15;;
38226;SDS011;24026;49.446;8.576;2024-03-22T05:28:56;136.57;;;123.00;;
38226;SDS011;24026;49.446;8.576;2024-03-22T05:31:16;137.45;;;123.88;;
38226;SDS011;24026;49.446;8.576;2024-03-22T05:33:37;138.55;;;124.75;;
38226;SDS011;24026;49.446;8.576;2024-03-22T05:35:57;139.95;;;126.05;;
38226;SDS011;24026;49.446;8.576;2024-03-22T05:38:17;138.35;;;124.45;;
38226;SDS011;24026;49.446;8.576;2024-03-22T05:40:38;139.02;;;125.13;;
38226;SDS011;24026;49.446;8.576;2024-03-22T05:42:58;138.55;;;124.85;;
38226;SDS011;24026;49.446;8.576;2024-03-22T05:45:19;138.70;;;124.90;;
38226;SDS011;24026;49.446;8.576;2024-03-22T05:47:39;138.18;;;124.50;;
38226;SDS011;24026;49.446;8.576;2024-03-22T05:49:59;139.73;;;125.78;;
38226;SDS011;24026;49.446;8.576;2024-03-22T05:52:21;138.73;;;124.88;;
38226;SDS011;24026;49.446;8.576;2024-03-22T05:54:41;140.18;;;126.25;;
38226;SDS011;24026;49.446;8.576;2024-03-22T05:57:02;138.50;;;124.65;;
38226;SDS011;24026;49.446;8.576;2024-03-22T05:59:22;138.27;;;124.47;;
38226;SDS011;24026;49.446;8.576;2024-03-22T06:01:43;137.25;;;123.65;;
38226;SDS011;24026;49.446;8.576;2024-03-22T06:04:05;139.52;;;125.65;;
38226;SDS011;24026;49.446;8.576;2024-03-22T06:06:25;141.30;;;127.18;;
38226;SDS011;24026;49.446;8.576;2024-03-22T06:08:46;139.43;;;125.18;;
38226;SDS011;24026;49.446;8.576;2024-03-22T06:11:12;136.00;;;122.43;;
38226;SDS011;24026;49.446;8.576;2024-03-22T06:13:34;138.38;;;124.60;;
38226;SDS011;24026;49.446;8.576;2024-03-22T06:15:56;139.88;;;125.72;;
38226;SDS011;24026;49.446;8.576;2024-03-22T06:18:16;141.60;;;127.43;;
38226;SDS011;24026;49.446;8.576;2024-03-22T06:20:38;142.85;;;128.35;;
38226;SDS011;24026;49.446;8.576;2024-03-22T06:23:00;140.68;;;126.57;;
38226;SDS011;24026;49.446;8.576;2024-03-22T06:25:23;146.02;;;130.40;;
38226;SDS011;24026;49.446;8.576;2024-03-22T06:27:45;147.27;;;131.88;;
38226;SDS011;24026;49.446;8.576;2024-03-22T06:30:06;145.73;;;130.38;;
38226;SDS011;24026;49.446;8.576;2024-03-22T06:32:30;149.25;;;133.70;;
38226;SDS011;24026;49.446;8.576;2024-03-22T06:34:51;151.48;;;132.18;;
38226;SDS011;24026;49.446;8.576;2024-03-22T06:37:12;146.90;;;131.68;;
38226;SDS011;24026;49.446;8.576;2024-03-22T06:39:33;145.93;;;130.43;;
38226;SDS011;24026;49.446;8.576;2024-03-22T06:41:53;152.45;;;135.15;;
38226;SDS011;24026;49.446;8.576;2024-03-22T06:44:17;152.70;;;135.23;;
38226;SDS011;24026;49.446;8.576;2024-03-22T06:46:38;163.35;;;138.13;;
38226;SDS011;24026;49.446;8.576;2024-03-22T06:49:00;171.02;;;144.98;;
38226;SDS011;24026;49.446;8.576;2024-03-22T06:51:20;179.85;;;153.23;;
38226;SDS011;24026;49.446;8.576;2024-03-22T06:53:41;187.60;;;153.02;;
38226;SDS011;24026;49.446;8.576;2024-03-22T06:56:01;181.73;;;154.93;;
38226;SDS011;24026;49.446;8.576;2024-03-22T06:58:22;184.57;;;155.55;;
38226;SDS011;24026;49.446;8.576;2024-03-22T07:00:43;195.65;;;165.65;;
38226;SDS011;24026;49.446;8.576;2024-03-22T07:03:04;190.90;;;168.07;;
38226;SDS011;24026;49.446;8.576;2024-03-22T07:05:25;238.07;;;211.20;;
38226;SDS011;24026;49.446;8.576;2024-03-22T07:07:45;214.40;;;189.65;;
38226;SDS011;24026;49.446;8.576;2024-03-22T07:10:06;235.48;;;205.13;;
38226;SDS011;24026;49.446;8.576;2024-03-22T07:12:28;249.75;;;216.05;;
38226;SDS011;24026;49.446;8.576;2024-03-22T07:14:49;268.83;;;223.60;;
38226;SDS011;24026;49.446;8.576;2024-03-22T07:17:10;278.17;;;229.95;;
38226;SDS011;24026;49.446;8.576;2024-03-22T07:19:31;290.25;;;235.35;;
38226;SDS011;24026;49.446;8.576;2024-03-22T07:21:54;299.52;;;243.95;;
38226;SDS011;24026;49.446;8.576;2024-03-22T07:24:14;307.65;;;243.45;;
38226;SDS011;24026;49.446;8.576;2024-03-22T07:26:34;296.58;;;249.98;;
38226;SDS011;24026;49.446;8.576;2024-03-22T07:28:56;301.75;;;257.52;;
38226;SDS011;24026;49.446;8.576;2024-03-22T07:31:18;326.75;;;265.83;;
38226;SDS011;24026;49.446;8.576;2024-03-22T07:33:39;315.42;;;265.58;;
38226;SDS011;24026;49.446;8.576;2024-03-22T07:36:05;321.02;;;268.75;;
38226;SDS011;24026;49.446;8.576;2024-03-22T07:38:26;324.80;;;268.63;;
38226;SDS011;24026;49.446;8.576;2024-03-22T07:40:46;332.63;;;269.38;;
38226;SDS011;24026;49.446;8.576;2024-03-22T07:43:08;335.52;;;270.30;;
38226;SDS011;24026;49.446;8.576;2024-03-22T07:45:32;320.92;;;268.90;;
38226;SDS011;24026;49.446;8.576;2024-03-22T07:47:54;338.02;;;273.70;;
38226;SDS011;24026;49.446;8.576;2024-03-22T07:50:17;337.35;;;274.45;;
38226;SDS011;24026;49.446;8.576;2024-03-22T07:52:40;344.88;;;273.35;;
38226;SDS011;24026;49.446;8.576;2024-03-22T07:55:01;335.17;;;270.33;;
38226;SDS011;24026;49.446;8.576;2024-03-22T07:57:24;338.75;;;272.63;;
38226;SDS011;24026;49.446;8.576;2024-03-22T07:59:44;323.52;;;269.65;;
38226;SDS011;24026;49.446;8.576;2024-03-22T08:02:06;331.52;;;272.38;;
38226;SDS011;24026;49.446;8.576;2024-03-22T08:04:28;325.70;;;270.55;;
38226;SDS011;24026;49.446;8.576;2024-03-22T08:06:55;328.50;;;272.85;;
38226;SDS011;24026;49.446;8.576;2024-03-22T08:09:16;322.02;;;275.10;;
38226;SDS011;24026;49.446;8.576;2024-03-22T08:11:38;319.67;;;275.60;;
38226;SDS011;24026;49.446;8.576;2024-03-22T08:13:58;318.20;;;274.33;;
38226;SDS011;24026;49.446;8.576;2024-03-22T08:16:23;326.95;;;274.25;;
38226;SDS011;24026;49.446;8.576;2024-03-22T08:18:44;317.35;;;273.35;;
38226;SDS011;24026;49.446;8.576;2024-03-22T08:21:04;331.27;;;271.77;;
38226;SDS011;24026;49.446;8.576;2024-03-22T08:23:26;306.02;;;265.77;;
38226;SDS011;24026;49.446;8.576;2024-03-22T08:25:47;319.40;;;267.52;;
38226;SDS011;24026;49.446;8.576;2024-03-22T08:28:07;322.98;;;273.88;;
38226;SDS011;24026;49.446;8.576;2024-03-22T08:30:31;323.48;;;271.33;;
38226;SDS011;24026;49.446;8.576;2024-03-22T08:32:53;332.13;;;274.08;;
38226;SDS011;24026;49.446;8.576;2024-03-22T08:35:14;327.98;;;270.17;;
38226;SDS011;24026;49.446;8.576;2024-03-22T08:37:35;325.90;;;272.38;;
38226;SDS011;24026;49.446;8.576;2024-03-22T08:39:59;328.67;;;274.20;;
38226;SDS011;24026;49.446;8.576;2024-03-22T08:42:21;324.17;;;269.67;;
38226;SDS011;24026;49.446;8.576;2024-03-22T08:44:41;313.77;;;269.02;;
38226;SDS011;24026;49.446;8.576;2024-03-22T08:47:04;311.20;;;269.25;;
38226;SDS011;24026;49.446;8.576;2024-03-22T08:49:26;317.27;;;267.83;;
38226;SDS011;24026;49.446;8.576;2024-03-22T08:54:07;304.40;;;270.65;;
38226;SDS011;24026;49.446;8.576;2024-03-22T08:56:30;347.25;;;308.83;;
38226;SDS011;24026;49.446;8.576;2024-03-22T08:58:50;323.77;;;286.30;;
38226;SDS011;24026;49.446;8.576;2024-03-22T09:01:11;331.73;;;287.65;;
38226;SDS011;24026;49.446;8.576;2024-03-22T09:03:33;330.15;;;285.00;;
38226;SDS011;24026;49.446;8.576;2024-03-22T09:05:56;315.55;;;274.65;;
38226;SDS011;24026;49.446;8.576;2024-03-22T09:08:18;313.05;;;270.10;;
38226;SDS011;24026;49.446;8.576;2024-03-22T09:10:40;336.40;;;275.58;;
38226;SDS011;24026;49.446;8.576;2024-03-22T09:13:01;322.45;;;263.10;;
38226;SDS011;24026;49.446;8.576;2024-03-22T09:15:23;317.27;;;271.50;;
38226;SDS011;24026;49.446;8.576;2024-03-22T09:17:44;312.23;;;265.42;;
38226;SDS011;24026;49.446;8.576;2024-03-22T09:20:06;318.27;;;268.52;;
38226;SDS011;24026;49.446;8.576;2024-03-22T09:22:27;295.70;;;250.23;;
38226;SDS011;24026;49.446;8.576;2024-03-22T09:24:49;299.50;;;255.18;;
38226;SDS011;24026;49.446;8.576;2024-03-22T09:27:10;300.15;;;254.55;;
38226;SDS011;24026;49.446;8.576;2024-03-22T09:29:30;316.48;;;256.95;;
38226;SDS011;24026;49.446;8.576;2024-03-22T09:31:52;310.23;;;254.48;;
38226;SDS011;24026;49.446;8.576;2024-03-22T09:34:14;334.98;;;262.90;;
38226;SDS011;24026;49.446;8.576;2024-03-22T09:36:37;311.67;;;254.27;;
38226;SDS011;24026;49.446;8.576;2024-03-22T09:38:57;322.80;;;250.60;;
38226;SDS011;24026;49.446;8.576;2024-03-22T09:41:22;322.38;;;252.73;;
38226;SDS011;24026;49.446;8.576;2024-03-22T09:43:44;322.65;;;252.85;;
38226;SDS011;24026;49.446;8.576;2024-03-22T09:46:10;299.10;;;250.00;;
38226;SDS011;24026;49.446;8.576;2024-03-22T09:48:35;314.75;;;249.13;;
38226;SDS011;24026;49.446;8.576;2024-03-22T09:50:58;301.73;;;250.10;;
38226;SDS011;24026;49.446;8.576;2024-03-22T09:53:19;296.98;;;248.27;;
38226;SDS011;24026;49.446;8.576;2024-03-22T09:55:40;280.45;;;244.32;;
38226;SDS011;24026;49.446;8.576;2024-03-22T09:58:03;248.43;;;221.50;;
38226;SDS011;24026;49.446;8.576;2024-03-22T10:00:25;253.50;;;225.68;;
38226;SDS011;24026;49.446;8.576;2024-03-22T10:05:07;229.35;;;203.93;;
38226;SDS011;24026;49.446;8.576;2024-03-22T10:07:28;204.13;;;181.82;;
38226;SDS011;24026;49.446;8.576;2024-03-22T10:09:51;215.48;;;191.25;;
38226;SDS011;24026;49.446;8.576;2024-03-22T10:12:13;217.07;;;188.10;;
38226;SDS011;24026;49.446;8.576;2024-03-22T10:14:37;216.98;;;184.63;;
38226;SDS011;24026;49.446;8.576;2024-03-22T10:17:00;225.48;;;192.30;;
38226;SDS011;24026;49.446;8.576;2024-03-22T10:19:22;308.27;;;212.45;;
38226;SDS011;24026;49.446;8.576;2024-03-22T10:22:03;279.05;;;209.77;;
38226;SDS011;24026;49.446;8.576;2024-03-22T10:24:25;286.88;;;207.57;;
38226;SDS011;24026;49.446;8.576;2024-03-22T10:26:50;306.27;;;210.85;;
38226;SDS011;24026;49.446;8.576;2024-03-22T10:29:12;305.30;;;217.38;;
38226;SDS011;24026;49.446;8.576;2024-03-22T10:31:34;301.42;;;215.32;;
38226;SDS011;24026;49.446;8.576;2024-03-22T10:33:55;270.42;;;209.15;;
38226;SDS011;24026;49.446;8.576;2024-03-22T10:36:16;266.55;;;214.18;;
38226;SDS011;24026;49.446;8.576;2024-03-22T10:38:44;264.30;;;217.02;;
38226;SDS011;24026;49.446;8.576;2024-03-22T10:41:05;271.40;;;216.18;;
38226;SDS011;24026;49.446;8.576;2024-03-22T10:43:26;271.60;;;213.07;;
38226;SDS011;24026;49.446;8.576;2024-03-22T10:45:47;262.75;;;216.75;;
38226;SDS011;24026;49.446;8.576;2024-03-22T10:48:12;261.35;;;217.65;;
38226;SDS011;24026;49.446;8.576;2024-03-22T10:50:34;253.10;;;216.00;;
38226;SDS011;24026;49.446;8.576;2024-03-22T10:52:59;252.57;;;213.23;;
38226;SDS011;24026;49.446;8.576;2024-03-22T11:00:33;251.02;;;211.68;;
38226;SDS011;24026;49.446;8.576;2024-03-22T11:02:57;254.57;;;210.38;;
38226;SDS011;24026;49.446;8.576;2024-03-22T11:05:19;247.88;;;206.38;;
38226;SDS011;24026;49.446;8.576;2024-03-22T11:07:39;239.18;;;206.20;;
38226;SDS011;24026;49.446;8.576;2024-03-22T11:10:03;228.15;;;203.05;;
38226;SDS011;24026;49.446;8.576;2024-03-22T11:12:28;231.73;;;203.98;;
38226;SDS011;24026;49.446;8.576;2024-03-22T11:14:52;225.25;;;199.68;;
38226;SDS011;24026;49.446;8.576;2024-03-22T11:17:15;226.95;;;202.02;;
38226;SDS011;24026;49.446;8.576;2024-03-22T11:19:35;224.18;;;200.15;;
38226;SDS011;24026;49.446;8.576;2024-03-22T11:21:58;224.73;;;200.00;;
38226;SDS011;24026;49.446;8.576;2024-03-22T11:24:19;224.48;;;199.85;;
38226;SDS011;24026;49.446;8.576;2024-03-22T11:26:39;219.38;;;194.68;;
38226;SDS011;24026;49.446;8.576;2024-03-22T11:29:00;222.73;;;198.52;;
38226;SDS011;24026;49.446;8.576;2024-03-22T11:31:22;226.23;;;201.48;;
38226;SDS011;24026;49.446;8.576;2024-03-22T11:33:49;216.43;;;193.82;;
38226;SDS011;24026;49.446;8.576;2024-03-22T11:36:09;221.27;;;197.70;;
38226;SDS011;24026;49.446;8.576;2024-03-22T11:38:31;221.07;;;197.45;;
38226;SDS011;24026;49.446;8.576;2024-03-22T11:40:51;218.68;;;195.75;;
38226;SDS011;24026;49.446;8.576;2024-03-22T11:43:13;219.80;;;196.93;;
38226;SDS011;24026;49.446;8.576;2024-03-22T11:45:36;217.13;;;194.07;;
38226;SDS011;24026;49.446;8.576;2024-03-22T11:48:01;217.73;;;194.55;;
38226;SDS011;24026;49.446;8.576;2024-03-22T11:50:24;211.57;;;189.93;;
38226;SDS011;24026;49.446;8.576;2024-03-22T11:52:46;213.48;;;191.23;;
38226;SDS011;24026;49.446;8.576;2024-03-22T11:55:11;205.30;;;184.13;;
38226;SDS011;24026;49.446;8.576;2024-03-22T11:57:33;209.82;;;188.15;;
38226;SDS011;24026;49.446;8.576;2024-03-22T11:59:58;212.50;;;191.00;;
38226;SDS011;24026;49.446;8.576;2024-03-22T12:02:20;210.98;;;188.85;;
38226;SDS011;24026;49.446;8.576;2024-03-22T12:04:46;208.77;;;186.93;;
38226;SDS011;24026;49.446;8.576;2024-03-22T12:09:31;204.30;;;183.55;;
38226;SDS011;24026;49.446;8.576;2024-03-22T12:11:52;200.90;;;180.00;;
38226;SDS011;24026;49.446;8.576;2024-03-22T12:14:16;196.98;;;176.98;;
38226;SDS011;24026;49.446;8.576;2024-03-22T12:16:37;191.50;;;171.82;;
38226;SDS011;24026;49.446;8.576;2024-03-22T12:18:58;198.40;;;177.73;;
38226;SDS011;24026;49.446;8.576;2024-03-22T12:21:19;200.52;;;180.13;;
38226;SDS011;24026;49.446;8.576;2024-03-22T12:23:39;200.63;;;180.48;;
38226;SDS011;24026;49.446;8.576;2024-03-22T12:25:59;198.95;;;178.77;;
38226;SDS011;24026;49.446;8.576;2024-03-22T12:28:23;201.90;;;182.15;;
38226;SDS011;24026;49.446;8.576;2024-03-22T12:30:43;199.50;;;178.70;;
38226;SDS011;24026;49.446;8.576;2024-03-22T12:33:06;199.02;;;178.38;;
38226;SDS011;24026;49.446;8.576;2024-03-22T12:35:30;197.77;;;178.00;;
38226;SDS011;24026;49.446;8.576;2024-03-22T12:37:52;196.70;;;177.00;;
38226;SDS011;24026;49.446;8.576;2024-03-22T12:40:14;197.60;;;178.13;;
38226;SDS011;24026;49.446;8.576;2024-03-22T12:42:34;193.40;;;174.35;;
38226;SDS011;24026;49.446;8.576;2024-03-22T12:44:55;194.90;;;175.35;;
38226;SDS011;24026;49.446;8.576;2024-03-22T12:47:15;195.80;;;176.13;;
38226;SDS011;24026;49.446;8.576;2024-03-22T12:49:36;194.18;;;174.63;;
38226;SDS011;24026;49.446;8.576;2024-03-22T12:51:58;196.85;;;177.52;;
38226;SDS011;24026;49.446;8.576;2024-03-22T12:54:19;191.48;;;172.27;;
38226;SDS011;24026;49.446;8.576;2024-03-22T12:56:40;192.63;;;173.60;;
38226;SDS011;24026;49.446;8.576;2024-03-22T12:59:04;193.65;;;174.63;;
38226;SDS011;24026;49.446;8.576;2024-03-22T13:01:26;194.40;;;174.77;;
38226;SDS011;24026;49.446;8.576;2024-03-22T13:03:46;193.38;;;174.45;;
38226;SDS011;24026;49.446;8.576;2024-03-22T13:06:07;191.52;;;172.27;;
38226;SDS011;24026;49.446;8.576;2024-03-22T13:08:45;192.77;;;173.88;;
38226;SDS011;24026;49.446;8.576;2024-03-22T13:11:05;189.65;;;170.85;;
38226;SDS011;24026;49.446;8.576;2024-03-22T13:13:29;191.50;;;172.68;;
38226;SDS011;24026;49.446;8.576;2024-03-22T13:15:50;187.13;;;168.57;;
38226;SDS011;24026;49.446;8.576;2024-03-22T13:18:10;191.07;;;172.35;;
38226;SDS011;24026;49.446;8.576;2024-03-22T13:20:32;191.32;;;172.57;;
38226;SDS011;24026;49.446;8.576;2024-03-22T13:22:55;189.75;;;171.25;;
38226;SDS011;24026;49.446;8.576;2024-03-22T13:25:17;193.80;;;174.85;;
38226;SDS011;24026;49.446;8.576;2024-03-22T13:27:38;188.82;;;170.50;;
38226;SDS011;24026;49.446;8.576;2024-03-22T13:30:02;187.30;;;168.52;;
38226;SDS011;24026;49.446;8.576;2024-03-22T13:32:23;190.45;;;171.93;;
38226;SDS011;24026;49.446;8.576;2024-03-22T13:34:45;188.15;;;169.88;;